Time;durP1;ratioP1;P1;durP2;ratioP2;P2;SDS_P1;SDS_P2;PMS_P1;PMS_P2;Temp;Humidity;BMP_temperature;BMP_pressure;BME280_temperature;BME280_humidity;BME280_pressure;Samples;Min_cycle;Max_cycle;Signal;HPM_P1;HPM_P2
2023/12/16 00:01:14;;;;;;;11.35;5.30;;;8.60;99.90;;;;;;5114120;28;20196;-61
2023/12/16 00:03:40;;;;;;;11.90;6.20;;;8.50;99.90;;;;;;5114202;28;20170;-61
2023/12/16 00:06:06;;;;;;;12.98;5.50;;;8.60;99.90;;;;;;5114098;28;20576;-61
2023/12/16 00:08:32;;;;;;;9.55;4.57;;;8.60;99.90;;;;;;5114068;28;20204;-61
2023/12/16 00:10:58;;;;;;;10.90;4.97;;;8.70;99.90;;;;;;5113923;28;20266;-61
2023/12/16 00:13:23;;;;;;;12.10;5.22;;;8.70;99.90;;;;;;5113990;28;20246;-61
2023/12/16 00:15:49;;;;;;;14.10;5.43;;;8.60;99.90;;;;;;5114083;28;20183;-61
2023/12/16 00:18:15;;;;;;;12.50;5.85;;;8.60;99.90;;;;;;5114000;28;20260;-61
2023/12/16 00:20:40;;;;;;;11.30;5.50;;;8.60;99.90;;;;;;5113997;28;20223;-61
2023/12/16 00:23:06;;;;;;;9.35;4.45;;;8.50;99.90;;;;;;5113976;28;20225;-61
2023/12/16 00:25:32;;;;;;;12.15;5.53;;;8.50;99.90;;;;;;5117377;28;20169;-61
2023/12/16 00:27:57;;;;;;;11.48;5.60;;;8.50;99.90;;;;;;5118219;28;20173;-61
2023/12/16 00:30:23;;;;;;;10.82;4.63;;;8.60;99.90;;;;;;5118196;28;20260;-61
2023/12/16 00:32:48;;;;;;;9.80;4.55;;;8.60;99.90;;;;;;5118079;28;20290;-61
2023/12/16 00:35:14;;;;;;;12.88;4.68;;;8.60;99.90;;;;;;5118149;28;20185;-61
2023/12/16 00:37:40;;;;;;;13.65;4.60;;;8.50;99.90;;;;;;5116785;28;20187;-61
2023/12/16 00:40:07;;;;;;;10.30;4.57;;;8.60;99.90;;;;;;5117751;28;20199;-61
2023/12/16 00:42:33;;;;;;;8.95;4.40;;;8.50;99.90;;;;;;5118374;28;20199;-61
2023/12/16 00:44:59;;;;;;;9.85;4.32;;;8.60;99.90;;;;;;5117883;28;20666;-61
2023/12/16 00:47:25;;;;;;;7.57;4.32;;;8.50;99.90;;;;;;5117839;28;20614;-61
2023/12/16 00:49:51;;;;;;;10.25;4.35;;;8.50;99.90;;;;;;5117463;28;20627;-61
2023/12/16 00:52:17;;;;;;;9.75;4.05;;;8.50;99.90;;;;;;5117649;28;20212;-61
2023/12/16 00:54:42;;;;;;;10.95;4.47;;;8.50;99.90;;;;;;5117619;28;20691;-61
2023/12/16 00:57:08;;;;;;;12.50;4.80;;;8.50;99.90;;;;;;5117662;28;20197;-61
2023/12/16 00:59:34;;;;;;;10.77;5.00;;;8.50;99.90;;;;;;5117639;28;20195;-61
2023/12/16 01:01:59;;;;;;;9.95;4.40;;;8.50;99.90;;;;;;5117543;28;20181;-61
2023/12/16 01:04:25;;;;;;;12.27;4.90;;;8.50;99.90;;;;;;5117515;28;20256;-61
2023/12/16 01:06:51;;;;;;;10.80;4.30;;;8.50;99.90;;;;;;5117219;28;20653;-61
2023/12/16 01:09:17;;;;;;;10.07;4.00;;;8.40;99.90;;;;;;5117487;28;20170;-61
2023/12/16 01:11:43;;;;;;;12.88;4.25;;;8.40;99.90;;;;;;5117335;28;20256;-61
2023/12/16 01:14:08;;;;;;;12.48;3.97;;;8.40;99.90;;;;;;5117376;28;20249;-61
2023/12/16 01:16:34;;;;;;;7.60;3.40;;;8.40;99.90;;;;;;5117274;28;20177;-61
2023/12/16 01:19:00;;;;;;;10.57;4.32;;;8.30;99.90;;;;;;5117229;28;20178;-61
2023/12/16 01:21:26;;;;;;;12.57;4.20;;;8.30;99.90;;;;;;5116999;28;20185;-61
2023/12/16 01:23:51;;;;;;;7.85;3.72;;;8.40;99.90;;;;;;5116949;28;20165;-61
2023/12/16 01:26:17;;;;;;;13.43;4.57;;;8.50;99.90;;;;;;5117113;28;20368;-61
2023/12/16 01:28:43;;;;;;;13.82;4.25;;;8.40;99.90;;;;;;5116808;28;20545;-61
2023/12/16 01:31:09;;;;;;;9.93;4.25;;;8.40;99.90;;;;;;5116916;28;20173;-61
2023/12/16 01:33:34;;;;;;;8.35;4.22;;;8.40;99.90;;;;;;5116999;28;20607;-61
2023/12/16 01:36:00;;;;;;;11.10;4.10;;;8.30;99.90;;;;;;5115928;28;20169;-61
2023/12/16 01:38:26;;;;;;;12.80;4.68;;;8.40;99.90;;;;;;5116864;28;20169;-61
2023/12/16 01:40:51;;;;;;;8.15;4.47;;;8.30;99.90;;;;;;5116847;28;20174;-61
2023/12/16 01:43:17;;;;;;;12.93;4.30;;;8.30;99.90;;;;;;5116803;28;20205;-61
2023/12/16 01:45:43;;;;;;;14.27;4.53;;;8.40;99.90;;;;;;5116661;28;20178;-61
2023/12/16 01:48:10;;;;;;;13.68;4.25;;;8.30;99.90;;;;;;5116384;28;20184;-61
2023/12/16 01:50:36;;;;;;;12.32;4.72;;;8.20;99.90;;;;;;5116654;28;20248;-61
2023/12/16 01:53:04;;;;;;;10.65;4.25;;;8.20;99.90;;;;;;5116496;28;20748;-61
2023/12/16 01:55:31;;;;;;;10.35;4.45;;;8.20;99.90;;;;;;5116565;28;20261;-61
2023/12/16 01:57:57;;;;;;;11.02;3.78;;;8.00;99.90;;;;;;5116531;28;20185;-61
2023/12/16 02:00:23;;;;;;;12.82;4.05;;;8.00;99.90;;;;;;5116400;28;20177;-61
2023/12/16 02:02:49;;;;;;;9.50;4.20;;;8.00;99.90;;;;;;5116392;28;20213;-61
2023/12/16 02:05:15;;;;;;;8.73;3.50;;;8.00;99.90;;;;;;5116375;28;20284;-61
2023/12/16 02:07:41;;;;;;;12.73;4.30;;;8.00;99.90;;;;;;5115999;28;20173;-61
2023/12/16 02:10:08;;;;;;;9.65;4.50;;;7.90;99.90;;;;;;5116317;28;20173;-61
2023/12/16 02:12:33;;;;;;;8.23;3.65;;;8.10;99.90;;;;;;5116024;28;20299;-61
2023/12/16 02:15:00;;;;;;;11.63;4.22;;;8.10;99.90;;;;;;5116460;28;20272;-61
2023/12/16 02:17:25;;;;;;;10.30;4.30;;;8.00;99.90;;;;;;5116051;28;20664;-61
2023/12/16 02:19:53;;;;;;;9.45;4.20;;;8.00;99.90;;;;;;5116114;28;20177;-61
2023/12/16 02:22:19;;;;;;;9.90;4.05;;;8.00;99.90;;;;;;5115534;28;20217;-61
2023/12/16 02:24:46;;;;;;;10.15;4.65;;;8.00;99.90;;;;;;5116038;28;20231;-61
2023/12/16 02:27:12;;;;;;;11.25;4.70;;;8.00;99.90;;;;;;5115675;28;20173;-61
2023/12/16 02:29:37;;;;;;;10.02;4.40;;;8.10;99.90;;;;;;5114733;28;20173;-61
2023/12/16 02:32:03;;;;;;;10.32;4.18;;;8.10;99.90;;;;;;5115774;28;20209;-61
2023/12/16 02:34:30;;;;;;;7.38;4.05;;;8.10;99.90;;;;;;5115775;28;20226;-61
2023/12/16 02:36:55;;;;;;;11.60;4.10;;;8.00;99.90;;;;;;5115692;28;20181;-61
2023/12/16 02:39:21;;;;;;;10.40;4.40;;;7.90;99.90;;;;;;5115712;28;20169;-61
2023/12/16 02:41:47;;;;;;;13.00;4.68;;;7.80;99.90;;;;;;5115673;28;20173;-61
2023/12/16 02:44:12;;;;;;;8.38;3.40;;;7.80;99.90;;;;;;5115581;28;20212;-61
2023/12/16 02:46:38;;;;;;;9.95;4.32;;;7.90;99.90;;;;;;5115538;28;20173;-61
2023/12/16 02:49:04;;;;;;;10.70;3.95;;;7.80;99.90;;;;;;5114476;28;20205;-61
2023/12/16 02:51:29;;;;;;;10.23;3.85;;;7.80;99.90;;;;;;5115397;28;20205;-61
2023/12/16 02:53:55;;;;;;;10.40;4.28;;;7.80;99.90;;;;;;5115391;28;20196;-61
2023/12/16 02:56:21;;;;;;;7.97;3.58;;;7.90;99.90;;;;;;5115357;28;20200;-61
2023/12/16 02:58:49;;;;;;;10.82;3.90;;;7.80;99.90;;;;;;5115334;28;20178;-61
2023/12/16 03:01:15;;;;;;;10.27;3.72;;;7.70;99.90;;;;;;5115181;28;20173;-61
2023/12/16 03:03:41;;;;;;;10.07;4.05;;;7.60;99.90;;;;;;5114951;28;20523;-61
2023/12/16 03:06:08;;;;;;;9.80;4.18;;;7.50;99.90;;;;;;5115466;28;20168;-61
2023/12/16 03:08:37;;;;;;;10.35;3.95;;;7.60;99.90;;;;;;5114869;28;20638;-61
2023/12/16 03:11:04;;;;;;;10.23;4.25;;;7.60;99.90;;;;;;5114996;28;20277;-61
2023/12/16 03:13:30;;;;;;;9.77;3.97;;;7.50;99.90;;;;;;5114930;28;20193;-61
2023/12/16 03:15:56;;;;;;;9.45;4.53;;;7.50;99.90;;;;;;5114994;28;20503;-61
2023/12/16 03:18:22;;;;;;;11.13;4.53;;;7.40;99.90;;;;;;5114928;28;20199;-61
2023/12/16 03:20:49;;;;;;;10.55;4.45;;;7.40;99.90;;;;;;5114599;28;20201;-61
2023/12/16 03:23:15;;;;;;;10.45;3.90;;;7.30;99.90;;;;;;5114465;28;20220;-61
2023/12/16 03:25:44;;;;;;;10.20;4.00;;;7.20;99.90;;;;;;5114760;28;20246;-61
2023/12/16 03:28:10;;;;;;;11.35;3.95;;;7.20;99.90;;;;;;5114709;28;20180;-61
2023/12/16 03:30:40;;;;;;;12.90;3.60;;;7.20;99.90;;;;;;5114740;28;20172;-61
2023/12/16 03:33:07;;;;;;;13.90;3.63;;;7.20;99.90;;;;;;5114567;28;20196;-61
2023/12/16 03:35:33;;;;;;;11.07;3.55;;;7.10;99.90;;;;;;5114633;28;20191;-61
2023/12/16 03:38:00;;;;;;;10.43;3.97;;;7.10;99.90;;;;;;5114593;28;20169;-61
2023/12/16 03:40:26;;;;;;;8.32;3.42;;;7.00;99.90;;;;;;5114516;28;20250;-61
2023/12/16 03:42:52;;;;;;;15.18;4.10;;;7.00;99.90;;;;;;5114467;28;20241;-61
2023/12/16 03:45:17;;;;;;;13.98;3.95;;;7.00;99.90;;;;;;5114461;28;20173;-61
2023/12/16 03:47:43;;;;;;;7.35;3.55;;;7.00;99.90;;;;;;5114407;28;20230;-61
2023/12/16 03:50:09;;;;;;;9.75;3.13;;;7.00;99.90;;;;;;5114419;28;20564;-61
2023/12/16 03:52:34;;;;;;;7.72;4.00;;;7.00;99.90;;;;;;5112988;28;20257;-61
2023/12/16 03:55:00;;;;;;;13.35;3.42;;;7.00;99.90;;;;;;5114069;28;20667;-61
2023/12/16 03:57:25;;;;;;;11.88;3.60;;;7.00;99.90;;;;;;5113995;28;20180;-61
2023/12/16 03:59:51;;;;;;;12.80;4.30;;;7.00;99.90;;;;;;5113993;28;20533;-61
2023/12/16 04:02:17;;;;;;;10.50;3.83;;;7.00;99.90;;;;;;5113944;28;20750;-61
2023/12/16 04:04:42;;;;;;;13.70;4.28;;;7.00;99.90;;;;;;5114159;28;20598;-61
2023/12/16 04:07:09;;;;;;;9.77;3.65;;;6.90;99.90;;;;;;5114237;28;20177;-61
2023/12/16 04:09:35;;;;;;;8.10;3.45;;;7.00;99.90;;;;;;5114108;28;20534;-61
2023/12/16 04:12:00;;;;;;;14.23;3.85;;;6.90;99.90;;;;;;5114023;28;20199;-61
2023/12/16 04:14:26;;;;;;;8.00;3.13;;;6.90;99.90;;;;;;5113842;28;20263;-61
2023/12/16 04:16:52;;;;;;;12.40;3.42;;;7.00;99.90;;;;;;5114035;28;20177;-61
2023/12/16 04:19:18;;;;;;;11.35;3.63;;;7.00;99.90;;;;;;5113956;28;20225;-61
2023/12/16 04:21:44;;;;;;;12.60;3.90;;;6.90;99.90;;;;;;5113877;28;20307;-61
2023/12/16 04:24:09;;;;;;;14.60;3.90;;;6.90;99.90;;;;;;5113737;28;20180;-61
2023/12/16 04:26:35;;;;;;;10.02;3.78;;;6.90;99.90;;;;;;5113710;28;20177;-62
2023/12/16 04:29:01;;;;;;;13.13;3.92;;;6.90;99.90;;;;;;5113976;28;20222;-61
2023/12/16 04:31:26;;;;;;;11.07;3.55;;;6.90;99.90;;;;;;5113754;28;20226;-61
2023/12/16 04:33:55;;;;;;;11.85;3.35;;;7.10;99.90;;;;;;5113890;28;20525;-61
2023/12/16 04:36:20;;;;;;;7.68;3.08;;;7.00;99.90;;;;;;5113515;28;20236;-61
2023/12/16 04:38:46;;;;;;;9.18;4.13;;;7.00;99.90;;;;;;5114133;28;20306;-61
2023/12/16 04:41:14;;;;;;;9.35;3.80;;;7.00;99.90;;;;;;5113454;28;20281;-61
2023/12/16 04:43:40;;;;;;;10.15;3.55;;;7.00;99.90;;;;;;5113848;28;20180;-62
2023/12/16 04:46:06;;;;;;;11.35;3.30;;;7.00;99.90;;;;;;5113730;28;20173;-61
2023/12/16 04:48:32;;;;;;;11.50;3.17;;;7.10;99.90;;;;;;5113786;28;20525;-61
2023/12/16 04:51:05;;;;;;;9.60;3.17;;;7.10;99.90;;;;;;5113973;28;20187;-61
2023/12/16 04:53:31;;;;;;;9.82;3.35;;;7.00;99.90;;;;;;5113669;28;20210;-61
2023/12/16 04:55:57;;;;;;;7.85;2.92;;;7.00;99.90;;;;;;5113662;28;20178;-61
2023/12/16 04:58:22;;;;;;;8.63;3.60;;;7.00;99.90;;;;;;5113602;28;20211;-61
2023/12/16 05:00:48;;;;;;;9.23;3.30;;;6.90;99.90;;;;;;5113658;28;20184;-61
2023/12/16 05:03:14;;;;;;;7.03;2.92;;;6.90;99.90;;;;;;5113180;28;20189;-61
2023/12/16 05:05:39;;;;;;;13.10;3.63;;;6.90;99.90;;;;;;5113589;28;20174;-61
2023/12/16 05:08:05;;;;;;;10.10;3.63;;;6.90;99.90;;;;;;5113550;28;20173;-61
2023/12/16 05:10:31;;;;;;;8.40;3.50;;;6.80;99.90;;;;;;5113434;28;20264;-61
2023/12/16 05:12:56;;;;;;;11.70;4.05;;;6.80;99.90;;;;;;5117208;28;20237;-62
2023/12/16 05:15:22;;;;;;;13.80;3.67;;;6.80;99.90;;;;;;5117380;28;20233;-61
2023/12/16 05:17:47;;;;;;;7.25;3.42;;;6.80;99.90;;;;;;5117343;28;20169;-61
2023/12/16 05:20:14;;;;;;;9.93;3.70;;;6.80;99.90;;;;;;5116106;28;20214;-61
2023/12/16 05:22:40;;;;;;;9.35;3.17;;;6.80;99.90;;;;;;5117238;28;20282;-61
2023/12/16 05:25:06;;;;;;;11.98;3.45;;;6.70;99.90;;;;;;5117217;28;20225;-61
2023/12/16 05:27:32;;;;;;;10.77;3.50;;;6.80;99.90;;;;;;5116895;28;20541;-61
2023/12/16 05:29:59;;;;;;;14.93;4.15;;;6.70;99.90;;;;;;5116851;28;20175;-61
2023/12/16 05:32:26;;;;;;;7.97;3.30;;;6.70;99.90;;;;;;5116943;28;20208;-61
2023/12/16 05:34:52;;;;;;;10.25;3.80;;;6.70;99.90;;;;;;5116987;28;20272;-61
2023/12/16 05:37:17;;;;;;;12.60;3.67;;;6.70;99.90;;;;;;5116904;28;20253;-61
2023/12/16 05:39:43;;;;;;;12.18;3.78;;;6.60;99.90;;;;;;5116803;28;20269;-61
2023/12/16 05:42:09;;;;;;;9.05;3.30;;;6.60;99.90;;;;;;5116862;28;20178;-61
2023/12/16 05:44:35;;;;;;;12.73;3.15;;;6.60;99.90;;;;;;5116767;28;20169;-61
2023/12/16 05:47:01;;;;;;;11.23;3.70;;;6.50;99.90;;;;;;5117039;28;20275;-62
2023/12/16 05:49:27;;;;;;;10.35;3.33;;;6.50;99.90;;;;;;5116754;28;20637;-61
2023/12/16 05:51:54;;;;;;;9.25;3.08;;;6.50;99.90;;;;;;5116809;28;20215;-61
2023/12/16 05:54:23;;;;;;;11.25;3.83;;;6.50;99.90;;;;;;5116619;28;20593;-61
2023/12/16 05:56:49;;;;;;;10.25;3.85;;;6.50;99.90;;;;;;5116519;28;20230;-61
2023/12/16 05:59:14;;;;;;;13.85;3.90;;;6.50;99.90;;;;;;5116240;28;20169;-61
2023/12/16 06:01:40;;;;;;;10.45;3.17;;;6.50;99.90;;;;;;5116474;28;20211;-61
2023/12/16 06:04:06;;;;;;;10.75;3.90;;;6.60;99.90;;;;;;5115041;28;20629;-61
2023/12/16 06:06:32;;;;;;;9.15;3.55;;;6.50;99.90;;;;;;5116679;28;20172;-61
2023/12/16 06:08:57;;;;;;;10.73;3.80;;;6.40;99.90;;;;;;5116316;28;20187;-61
2023/12/16 06:11:23;;;;;;;10.40;3.78;;;6.40;99.90;;;;;;5116180;28;20177;-60
2023/12/16 06:13:52;;;;;;;11.45;4.70;;;6.40;99.90;;;;;;5116224;28;20300;-61
2023/12/16 06:16:18;;;;;;;14.30;4.10;;;6.40;99.90;;;;;;5116172;28;20183;-60
2023/12/16 06:18:47;;;;;;;9.05;3.42;;;6.50;99.90;;;;;;5116164;28;20503;-60
2023/12/16 06:21:13;;;;;;;13.30;4.10;;;6.50;99.90;;;;;;5115878;28;20626;-60
2023/12/16 06:23:38;;;;;;;7.95;3.40;;;6.50;99.90;;;;;;5115834;28;20183;-60
2023/12/16 06:26:04;;;;;;;8.55;3.88;;;6.40;99.90;;;;;;5116000;28;20177;-55
2023/12/16 06:28:30;;;;;;;12.88;4.32;;;6.30;99.90;;;;;;5115208;28;20174;-59
2023/12/16 06:30:56;;;;;;;8.45;3.70;;;6.20;99.90;;;;;;5115404;28;20263;-59
2023/12/16 06:33:24;;;;;;;9.63;3.88;;;6.20;99.90;;;;;;5115310;28;20193;-59
2023/12/16 06:35:51;;;;;;;12.77;4.35;;;6.30;99.90;;;;;;5112839;28;20176;-59
2023/12/16 06:38:16;;;;;;;11.32;4.20;;;6.40;99.90;;;;;;5115258;28;20182;-59
2023/12/16 06:40:43;;;;;;;9.30;3.60;;;6.40;99.90;;;;;;5115200;28;20181;-59
2023/12/16 06:43:09;;;;;;;11.63;3.92;;;6.40;99.90;;;;;;5112396;28;20223;-60
2023/12/16 06:45:34;;;;;;;13.80;4.45;;;6.50;99.90;;;;;;5115066;28;20173;-59
2023/12/16 06:48:00;;;;;;;13.95;4.85;;;6.50;99.90;;;;;;5114834;28;20252;-59
2023/12/16 06:50:26;;;;;;;11.73;4.45;;;6.40;99.90;;;;;;5115014;28;20204;-59
2023/12/16 06:52:52;;;;;;;11.80;4.88;;;6.40;99.90;;;;;;5113735;28;20316;-59
2023/12/16 06:55:17;;;;;;;13.50;5.57;;;6.40;99.90;;;;;;5115276;28;20181;-59
2023/12/16 06:57:44;;;;;;;15.02;5.35;;;6.50;99.90;;;;;;5112640;28;20189;-59
2023/12/16 07:00:10;;;;;;;13.40;5.40;;;6.60;99.90;;;;;;5113122;28;20185;-59
2023/12/16 07:02:37;;;;;;;14.50;5.47;;;6.50;99.90;;;;;;5114825;28;20184;-59
2023/12/16 07:05:03;;;;;;;10.95;4.68;;;6.50;99.90;;;;;;5115031;28;20255;-59
2023/12/16 07:07:29;;;;;;;11.13;5.00;;;6.60;99.90;;;;;;5114993;28;20521;-59
2023/12/16 07:09:55;;;;;;;12.52;4.88;;;6.50;99.90;;;;;;5113318;28;20184;-59
2023/12/16 07:12:20;;;;;;;17.90;5.40;;;6.50;99.90;;;;;;5112220;28;20200;-59
2023/12/16 07:14:47;;;;;;;10.82;5.30;;;6.60;99.90;;;;;;5114659;28;20177;-60
2023/12/16 07:17:13;;;;;;;14.75;5.18;;;6.70;99.90;;;;;;5114827;28;20592;-59
2023/12/16 07:19:38;;;;;;;13.23;4.57;;;6.70;99.90;;;;;;5114843;28;20244;-59
2023/12/16 07:22:04;;;;;;;13.13;4.82;;;6.80;99.90;;;;;;5114445;28;20235;-59
2023/12/16 07:24:29;;;;;;;13.68;4.90;;;6.80;99.90;;;;;;5114746;28;20173;-59
2023/12/16 07:26:55;;;;;;;8.98;4.47;;;6.80;99.90;;;;;;5114269;28;20184;-59
2023/12/16 07:29:21;;;;;;;12.23;4.63;;;7.00;99.90;;;;;;5114340;28;20229;-59
2023/12/16 07:31:48;;;;;;;13.52;4.78;;;6.90;99.90;;;;;;5114500;28;20298;-60
2023/12/16 07:34:13;;;;;;;11.07;4.60;;;7.00;99.90;;;;;;5113766;28;20177;-59
2023/12/16 07:36:39;;;;;;;10.50;4.38;;;7.10;99.90;;;;;;5114352;28;20172;-59
2023/12/16 07:39:05;;;;;;;13.40;4.18;;;7.10;99.90;;;;;;5114483;28;20173;-59
2023/12/16 07:41:30;;;;;;;16.73;5.22;;;7.10;99.90;;;;;;5113805;28;20178;-59
2023/12/16 07:43:56;;;;;;;12.38;4.45;;;7.20;99.90;;;;;;5114571;28;20264;-59
2023/12/16 07:46:22;;;;;;;10.95;4.28;;;7.20;99.90;;;;;;5112031;28;20601;-59
2023/12/16 07:48:47;;;;;;;11.68;4.90;;;7.30;99.90;;;;;;5114284;28;20169;-59
2023/12/16 07:51:17;;;;;;;13.85;4.45;;;7.40;99.90;;;;;;5113825;28;20185;-59
2023/12/16 07:53:52;;;;;;;14.00;4.50;;;7.40;99.90;;;;;;5114141;28;20207;-59
2023/12/16 07:56:20;;;;;;;14.90;4.13;;;7.50;99.90;;;;;;5114187;28;20158;-59
2023/12/16 07:58:46;;;;;;;13.43;3.90;;;7.60;99.90;;;;;;5114163;28;20188;-59
2023/12/16 08:01:16;;;;;;;9.52;3.80;;;7.50;99.90;;;;;;5114010;28;20685;-59
2023/12/16 08:03:41;;;;;;;12.85;4.10;;;7.60;99.90;;;;;;5114177;28;20590;-59
2023/12/16 08:06:11;;;;;;;9.75;4.13;;;7.60;99.90;;;;;;5114142;28;20201;-59
2023/12/16 08:08:40;;;;;;;8.77;3.63;;;7.70;99.90;;;;;;5113862;28;20172;-59
2023/12/16 08:11:06;;;;;;;15.88;4.13;;;7.70;99.90;;;;;;5114071;28;20514;-59
2023/12/16 08:13:32;;;;;;;10.90;3.85;;;7.90;99.90;;;;;;5114006;28;20646;-59
2023/12/16 08:15:58;;;;;;;17.70;4.63;;;7.90;99.90;;;;;;5114101;28;20714;-59
2023/12/16 08:18:25;;;;;;;12.35;4.82;;;8.00;99.90;;;;;;5113123;28;20169;-59
2023/12/16 08:20:50;;;;;;;13.35;4.10;;;8.00;99.90;;;;;;5113922;28;20180;-59
2023/12/16 08:23:16;;;;;;;12.18;4.35;;;8.10;99.90;;;;;;5112562;28;20712;-59
2023/12/16 08:25:41;;;;;;;9.52;3.58;;;8.20;99.90;;;;;;5113984;28;20248;-59
2023/12/16 08:28:07;;;;;;;14.63;3.97;;;8.30;99.90;;;;;;5113659;28;20254;-60
2023/12/16 08:30:33;;;;;;;15.00;4.15;;;8.30;99.90;;;;;;5113909;28;20269;-59
2023/12/16 08:32:58;;;;;;;12.98;4.10;;;8.40;99.90;;;;;;5113504;28;20669;-59
2023/12/16 08:35:24;;;;;;;12.40;3.50;;;8.30;99.90;;;;;;5112615;28;20652;-59
2023/12/16 08:37:50;;;;;;;17.90;4.43;;;8.30;99.90;;;;;;5113857;28;20270;-58
2023/12/16 08:40:15;;;;;;;13.57;4.07;;;8.40;99.90;;;;;;5113820;28;20184;-58
2023/12/16 08:42:42;;;;;;;16.35;4.20;;;8.60;99.90;;;;;;5113551;28;20195;-58
2023/12/16 08:45:11;;;;;;;18.63;4.63;;;8.60;99.90;;;;;;5113850;28;20206;-58
2023/12/16 08:47:37;;;;;;;15.00;4.10;;;8.60;99.90;;;;;;5115645;28;20173;-59
2023/12/16 08:50:03;;;;;;;13.07;4.00;;;8.60;99.90;;;;;;5116316;28;20226;-59
2023/12/16 08:52:31;;;;;;;12.35;3.88;;;8.60;99.90;;;;;;5117509;28;20212;-59
2023/12/16 08:54:57;;;;;;;11.13;3.95;;;8.60;99.90;;;;;;5117697;28;20697;-58
2023/12/16 08:57:23;;;;;;;15.13;3.85;;;8.70;99.90;;;;;;5117479;28;20617;-59
2023/12/16 08:59:49;;;;;;;10.80;3.80;;;8.70;99.90;;;;;;5117405;28;20211;-58
2023/12/16 09:02:15;;;;;;;12.25;3.60;;;8.80;99.90;;;;;;5117589;28;20209;-58
2023/12/16 09:04:40;;;;;;;11.75;3.85;;;8.80;99.90;;;;;;5117570;28;20184;-58
2023/12/16 09:07:06;;;;;;;13.30;4.32;;;8.90;99.90;;;;;;5117487;28;20166;-59
2023/12/16 09:09:32;;;;;;;13.70;4.13;;;9.00;99.90;;;;;;5117222;28;20669;-58
2023/12/16 09:11:58;;;;;;;14.57;4.10;;;9.00;99.90;;;;;;5116912;28;20197;-58
2023/12/16 09:14:24;;;;;;;10.45;3.60;;;9.10;99.90;;;;;;5117148;28;20218;-58
2023/12/16 09:16:50;;;;;;;11.88;4.35;;;9.20;99.90;;;;;;5117312;28;20201;-58
2023/12/16 09:19:16;;;;;;;12.20;3.63;;;9.20;99.90;;;;;;5117345;28;20208;-59
2023/12/16 09:21:42;;;;;;;9.70;4.30;;;9.20;99.90;;;;;;5117077;28;20228;-55
2023/12/16 09:24:08;;;;;;;13.93;4.57;;;9.20;99.90;;;;;;5117132;28;20174;-60
2023/12/16 09:26:34;;;;;;;14.95;5.07;;;9.30;99.90;;;;;;5116844;28;20542;-60
2023/12/16 09:29:01;;;;;;;13.10;4.38;;;9.40;99.90;;;;;;5117122;28;20177;-60
2023/12/16 09:31:27;;;;;;;14.73;3.97;;;9.50;99.90;;;;;;5116966;28;20635;-60
2023/12/16 09:33:53;;;;;;;10.77;3.92;;;9.50;99.90;;;;;;5116933;28;20208;-60
2023/12/16 09:36:18;;;;;;;14.45;3.70;;;9.60;99.90;;;;;;5116908;28;20542;-60
2023/12/16 09:38:44;;;;;;;11.07;3.50;;;9.60;99.90;;;;;;5117022;28;20173;-60
2023/12/16 09:41:42;;;;;;;12.98;3.67;;;9.60;99.90;;;;;;5116817;28;20177;-60
2023/12/16 09:44:08;;;;;;;16.27;4.10;;;9.60;99.90;;;;;;5116836;27;20165;-60
2023/12/16 09:46:34;;;;;;;12.82;3.90;;;9.70;99.90;;;;;;5116731;28;20184;-60
2023/12/16 09:49:00;;;;;;;11.05;3.78;;;9.70;99.90;;;;;;5116417;28;20267;-60
2023/12/16 09:51:26;;;;;;;13.98;4.20;;;9.70;99.90;;;;;;5116386;28;20503;-60
2023/12/16 09:53:53;;;;;;;11.35;4.18;;;9.80;99.90;;;;;;5116695;28;20173;-61
2023/12/16 09:56:19;;;;;;;15.20;4.15;;;9.80;99.90;;;;;;5116468;28;20176;-62
2023/12/16 09:58:47;;;;;;;10.63;3.63;;;9.90;99.90;;;;;;5116183;28;20173;-60
2023/12/16 10:01:13;;;;;;;12.48;3.97;;;10.00;99.90;;;;;;5116548;28;20220;-60
2023/12/16 10:03:41;;;;;;;13.60;3.58;;;10.00;99.90;;;;;;5116461;28;20227;-60
2023/12/16 10:06:10;;;;;;;11.88;3.50;;;10.00;99.90;;;;;;5116120;28;20626;-61
2023/12/16 10:08:37;;;;;;;9.90;3.33;;;10.00;99.90;;;;;;5116386;28;20180;-60
2023/12/16 10:11:05;;;;;;;11.20;3.63;;;10.10;99.90;;;;;;5116328;28;20181;-60
2023/12/16 10:13:32;;;;;;;14.48;3.88;;;10.20;99.90;;;;;;5116121;28;20229;-60
2023/12/16 10:15:58;;;;;;;14.05;3.83;;;10.30;99.90;;;;;;5116232;28;20180;-60
2023/12/16 10:18:25;;;;;;;12.15;4.10;;;10.30;99.90;;;;;;5116125;28;20630;-60
2023/12/16 10:20:51;;;;;;;9.73;3.78;;;10.30;99.90;;;;;;5115704;28;20170;-60
2023/12/16 10:23:16;;;;;;;12.23;3.60;;;10.30;99.90;;;;;;5116214;28;20235;-60
2023/12/16 10:25:42;;;;;;;19.13;4.32;;;10.30;99.90;;;;;;5116286;28;20179;-60
2023/12/16 10:28:10;;;;;;;15.30;3.88;;;10.40;99.90;;;;;;5116020;28;20169;-60
2023/12/16 10:30:36;;;;;;;14.13;3.92;;;10.40;99.90;;;;;;5115848;28;20169;-60
2023/12/16 10:33:06;;;;;;;8.13;3.80;;;10.40;99.90;;;;;;5115841;28;20553;-61
2023/12/16 10:35:32;;;;;;;13.82;3.92;;;10.40;99.90;;;;;;5115976;28;20169;-60
2023/12/16 10:37:58;;;;;;;12.98;3.92;;;10.40;99.90;;;;;;5115728;28;20264;-60
2023/12/16 10:40:24;;;;;;;12.75;3.88;;;10.40;99.90;;;;;;5115483;28;20212;-60
2023/12/16 10:42:50;;;;;;;8.85;3.90;;;10.40;99.90;;;;;;5115702;28;20607;-61
2023/12/16 10:45:15;;;;;;;14.50;4.05;;;10.40;99.90;;;;;;5115350;28;20175;-60
2023/12/16 10:47:42;;;;;;;13.85;4.15;;;10.30;99.90;;;;;;5115587;28;20184;-60
2023/12/16 10:50:10;;;;;;;13.70;4.10;;;10.40;99.90;;;;;;5115444;28;20169;-58
2023/12/16 10:52:42;;;;;;;12.80;4.07;;;10.40;99.90;;;;;;5115120;28;20197;-61
2023/12/16 10:55:14;;;;;;;16.60;4.28;;;10.50;99.90;;;;;;5115314;28;20181;-59
2023/12/16 10:58:09;;;;;;;15.30;4.45;;;10.50;99.90;;;;;;5115412;28;20153;-61
2023/12/16 11:00:38;;;;;;;13.68;4.15;;;10.50;99.90;;;;;;5115200;28;20160;-61
2023/12/16 11:03:07;;;;;;;12.50;4.35;;;10.50;99.90;;;;;;5115227;28;20260;-60
2023/12/16 11:05:39;;;;;;;14.88;4.25;;;10.60;99.90;;;;;;5115209;28;20165;-61
2023/12/16 11:08:05;;;;;;;13.05;4.85;;;10.60;99.90;;;;;;5114443;28;20210;-60
2023/12/16 11:10:31;;;;;;;13.27;4.28;;;10.40;99.90;;;;;;5113999;28;20581;-60
2023/12/16 11:13:02;;;;;;;9.80;4.22;;;10.40;99.90;;;;;;5114655;28;20283;-60
2023/12/16 11:15:31;;;;;;;13.85;4.43;;;10.50;99.90;;;;;;5114801;28;20168;-60
2023/12/16 11:18:16;;;;;;;13.32;4.85;;;10.60;99.90;;;;;;5115390;28;20626;-61
2023/12/16 11:20:52;;;;;;;13.10;4.70;;;10.80;99.90;;;;;;5115179;28;20577;-61
2023/12/16 11:23:19;;;;;;;13.60;4.10;;;10.70;99.90;;;;;;5114421;28;20233;-60
2023/12/16 11:25:47;;;;;;;17.00;5.25;;;10.70;99.90;;;;;;5114993;28;20698;-60
2023/12/16 11:28:17;;;;;;;14.55;5.43;;;10.70;99.90;;;;;;5114703;28;20598;-60
2023/12/16 11:30:43;;;;;;;12.23;4.43;;;10.70;99.90;;;;;;5114745;28;20169;-61
2023/12/16 11:33:08;;;;;;;12.93;4.93;;;10.70;99.90;;;;;;5114356;28;20212;-60
2023/12/16 11:35:37;;;;;;;11.15;4.88;;;10.70;99.90;;;;;;5114614;28;20173;-60
2023/12/16 11:38:04;;;;;;;18.05;5.03;;;10.70;99.90;;;;;;5114584;28;20184;-60
2023/12/16 11:40:42;;;;;;;16.38;5.85;;;10.70;99.90;;;;;;5114537;28;20531;-60
2023/12/16 11:43:09;;;;;;;14.82;4.85;;;10.70;99.90;;;;;;5114540;28;20255;-60
2023/12/16 11:45:37;;;;;;;13.32;4.95;;;10.70;99.90;;;;;;5114476;28;20177;-60
2023/12/16 11:48:08;;;;;;;16.63;6.20;;;10.70;99.90;;;;;;5114368;28;20173;-60
2023/12/16 11:50:34;;;;;;;11.77;5.43;;;10.60;99.90;;;;;;5114392;28;20203;-60
2023/12/16 11:53:01;;;;;;;13.57;5.63;;;10.60;99.90;;;;;;5114283;28;20543;-60
2023/12/16 11:55:27;;;;;;;15.13;5.40;;;10.70;99.90;;;;;;5114334;28;20188;-60
2023/12/16 11:57:53;;;;;;;19.75;5.78;;;10.70;99.90;;;;;;5114313;28;20177;-60
2023/12/16 12:00:19;;;;;;;16.92;5.80;;;10.60;99.90;;;;;;5114563;28;20169;-60
2023/12/16 12:02:47;;;;;;;13.90;5.75;;;10.60;99.90;;;;;;5113346;28;20249;-60
2023/12/16 12:05:14;;;;;;;17.20;5.90;;;10.70;99.90;;;;;;5114243;28;20226;-60
2023/12/16 12:07:39;;;;;;;17.58;6.05;;;10.70;99.90;;;;;;5114109;28;20184;-60
2023/12/16 12:10:05;;;;;;;15.63;5.72;;;10.70;99.90;;;;;;5114207;28;20172;-60
2023/12/16 12:12:31;;;;;;;20.25;6.00;;;10.70;99.90;;;;;;5113987;28;20201;-60
2023/12/16 12:14:57;;;;;;;18.48;5.72;;;10.70;99.90;;;;;;5114084;28;20229;-60
2023/12/16 12:17:23;;;;;;;17.60;5.57;;;10.70;99.90;;;;;;5114076;28;20226;-60
2023/12/16 12:19:49;;;;;;;13.10;5.40;;;10.70;99.90;;;;;;5113789;28;20215;-60
2023/12/16 12:22:15;;;;;;;17.02;5.82;;;10.70;99.90;;;;;;5112335;28;20233;-60
2023/12/16 12:24:40;;;;;;;15.82;6.03;;;10.70;99.90;;;;;;5112816;28;20188;-60
2023/12/16 12:27:08;;;;;;;16.90;6.60;;;10.70;99.90;;;;;;5113726;28;20514;-60
2023/12/16 12:29:56;;;;;;;15.95;6.03;;;10.70;99.90;;;;;;5113826;28;20181;-62
2023/12/16 12:32:23;;;;;;;15.85;5.70;;;10.70;99.90;;;;;;5113708;28;20306;-61
2023/12/16 12:35:15;;;;;;;14.50;5.88;;;10.60;99.90;;;;;;5113333;28;20192;-61
2023/12/16 12:37:43;;;;;;;19.45;5.97;;;10.60;99.90;;;;;;5109784;28;20218;-62
2023/12/16 12:40:12;;;;;;;14.60;5.55;;;10.70;99.90;;;;;;5113623;28;20168;-61
2023/12/16 12:43:00;;;;;;;17.33;6.40;;;10.70;99.90;;;;;;5113303;28;20186;-61
2023/12/16 12:45:33;;;;;;;18.55;6.15;;;10.60;99.90;;;;;;5113436;28;20173;-62